createdAt,value
2022-11-15T00:00:57.095Z,98441.25
2022-11-15T00:03:26.370Z,98438.53
2022-11-15T00:05:53.379Z,98433.47
2022-11-15T00:08:20.846Z,98435.78
2022-11-15T00:10:58.027Z,98431.94
2022-11-15T00:13:25.435Z,98429.16
2022-11-15T00:15:52.525Z,98427.69
2022-11-15T00:18:20.145Z,98433.84
2022-11-15T00:20:47.076Z,98432.56
2022-11-15T00:23:13.951Z,98425.22
2022-11-15T00:25:41.066Z,98426.16
2022-11-15T00:28:07.920Z,98418.13
2022-11-15T00:30:35.844Z,98420.25
2022-11-15T00:33:04.805Z,98414.00
2022-11-15T00:35:35.724Z,98417.16
2022-11-15T00:38:03.023Z,98408.72
2022-11-15T00:40:29.980Z,98411.78
2022-11-15T00:42:57.281Z,98419.53
2022-11-15T00:45:24.768Z,98416.50
2022-11-15T00:47:51.785Z,98411.84
2022-11-15T00:50:19.201Z,98403.94
2022-11-15T00:52:46.323Z,98406.13
2022-11-15T00:55:20.225Z,98403.00
2022-11-15T00:57:47.801Z,98410.56
2022-11-15T01:00:15.077Z,98411.56
2022-11-15T01:02:41.941Z,98395.44
2022-11-15T01:05:09.168Z,98394.63
2022-11-15T01:07:36.139Z,98390.06
2022-11-15T01:10:03.119Z,98383.75
2022-11-15T01:12:29.989Z,98388.81
2022-11-15T01:14:56.903Z,98383.69
2022-11-15T01:17:23.856Z,98380.50
2022-11-15T01:19:50.783Z,98380.75
2022-11-15T01:22:17.986Z,98372.50
2022-11-15T01:24:44.966Z,98376.22
2022-11-15T01:27:11.818Z,98373.44
2022-11-15T01:29:38.477Z,98362.37
2022-11-15T01:32:05.399Z,98356.53
2022-11-15T01:34:32.276Z,98355.50
2022-11-15T01:36:59.129Z,98358.88
2022-11-15T01:39:25.971Z,98355.03
2022-11-15T01:41:52.892Z,98343.69
2022-11-15T01:44:42.690Z,98356.34
2022-11-15T01:47:21.568Z,98358.31
2022-11-15T01:49:58.391Z,98364.69
2022-11-15T01:52:26.809Z,98356.16
2022-11-15T01:54:58.420Z,98358.62
2022-11-15T01:57:25.473Z,98349.00
2022-11-15T01:59:52.430Z,98348.88
2022-11-15T02:02:19.344Z,98363.97
2022-11-15T02:04:47.885Z,98354.56
2022-11-15T02:07:17.493Z,98359.03
2022-11-15T02:09:45.543Z,98354.34
2022-11-15T02:12:16.039Z,98350.78
2022-11-15T02:14:44.441Z,98347.47
2022-11-15T02:17:20.246Z,98333.88
2022-11-15T02:19:55.963Z,98339.63
2022-11-15T02:22:41.549Z,98333.50
2022-11-15T02:25:17.723Z,98326.69
2022-11-15T02:28:22.288Z,98345.91
2022-11-15T02:31:04.392Z,98343.16
2022-11-15T02:33:45.209Z,98332.56
2022-11-15T02:36:32.223Z,98334.78
2022-11-15T02:39:00.534Z,98331.47
2022-11-15T02:41:45.510Z,98323.03
2022-11-15T02:44:20.584Z,98318.47
2022-11-15T02:47:12.464Z,98320.09
2022-11-15T02:50:02.326Z,98324.53
2022-11-15T02:52:29.184Z,98316.09
2022-11-15T02:54:59.840Z,98329.75
2022-11-15T02:57:46.563Z,98333.19
2022-11-15T03:00:18.774Z,98326.53
2022-11-15T03:03:10.297Z,98321.53
2022-11-15T03:06:11.101Z,98322.09
2022-11-15T03:09:04.717Z,98312.44
2022-11-15T03:11:36.177Z,98325.72
2022-11-15T03:14:27.922Z,98315.53
2022-11-15T03:17:19.899Z,98318.81
2022-11-15T03:19:48.992Z,98314.22
2022-11-15T03:22:18.450Z,98292.66
2022-11-15T03:24:47.049Z,98291.03
2022-11-15T03:27:17.055Z,98291.56
2022-11-15T03:29:53.974Z,98280.63
2022-11-15T03:32:27.471Z,98284.34
2022-11-15T03:35:00.387Z,98296.25
2022-11-15T03:37:34.107Z,98296.25
2022-11-15T03:40:01.303Z,98291.56
2022-11-15T03:42:55.949Z,98282.84
2022-11-15T03:45:33.836Z,98289.88
2022-11-15T03:48:04.408Z,98293.13
2022-11-15T03:50:31.399Z,98281.59
2022-11-15T03:52:58.783Z,98270.13
2022-11-15T03:55:25.904Z,98271.47
2022-11-15T03:57:55.969Z,98269.84
2022-11-15T04:00:23.003Z,98250.63
2022-11-15T04:02:49.888Z,98240.81
2022-11-15T04:05:16.800Z,98245.06
2022-11-15T04:07:43.646Z,98252.22
2022-11-15T04:10:12.168Z,98272.91
2022-11-15T04:12:44.319Z,98273.91
2022-11-15T04:15:13.179Z,98278.84
2022-11-15T04:17:41.740Z,98268.31
2022-11-15T04:20:31.861Z,98273.06
2022-11-15T04:23:18.426Z,98278.19
2022-11-15T04:25:45.875Z,98267.50
2022-11-15T04:28:12.813Z,98267.78
2022-11-15T04:30:40.042Z,98261.50
2022-11-15T04:33:06.920Z,98253.34
2022-11-15T04:35:33.950Z,98245.53
2022-11-15T04:38:01.383Z,98243.81
2022-11-15T04:40:28.239Z,98247.59
2022-11-15T04:42:59.428Z,98235.44
2022-11-15T04:45:30.160Z,98233.56
2022-11-15T04:47:56.868Z,98239.69
2022-11-15T04:50:23.754Z,98239.78
2022-11-15T04:52:55.125Z,98240.63
2022-11-15T04:55:22.309Z,98242.81
2022-11-15T04:57:49.181Z,98237.00
2022-11-15T05:00:17.436Z,98237.66
2022-11-15T05:03:02.941Z,98239.06
2022-11-15T05:05:29.917Z,98236.91
2022-11-15T05:07:56.787Z,98238.69
2022-11-15T05:10:23.750Z,98239.97
2022-11-15T05:12:50.625Z,98244.19
2022-11-15T05:15:17.703Z,98236.62
2022-11-15T05:17:44.613Z,98226.53
2022-11-15T05:20:12.115Z,98236.41
2022-11-15T05:22:39.511Z,98231.72
2022-11-15T05:25:07.097Z,98235.09
2022-11-15T05:27:34.979Z,98241.78
2022-11-15T05:30:01.860Z,98235.44
2022-11-15T05:32:29.539Z,98228.94
2022-11-15T05:34:56.674Z,98232.06
2022-11-15T05:37:23.739Z,98219.16
2022-11-15T05:39:51.589Z,98216.25
2022-11-15T05:42:18.616Z,98208.09
2022-11-15T05:44:49.310Z,98218.16
2022-11-15T05:47:25.131Z,98226.25
2022-11-15T05:49:52.854Z,98219.53
2022-11-15T05:52:29.474Z,98226.91
2022-11-15T05:54:57.217Z,98237.12
2022-11-15T05:57:24.081Z,98216.28
2022-11-15T05:59:51.141Z,98226.38
2022-11-15T06:02:18.106Z,98226.09
2022-11-15T06:04:45.165Z,98229.09
2022-11-15T06:07:12.109Z,98233.31
2022-11-15T06:09:38.990Z,98223.91
2022-11-15T06:12:05.746Z,98220.84
2022-11-15T06:14:32.669Z,98223.41
2022-11-15T06:16:59.510Z,98215.84
2022-11-15T06:19:26.207Z,98221.56
2022-11-15T06:21:53.102Z,98228.09
2022-11-15T06:24:19.937Z,98233.09
2022-11-15T06:26:46.585Z,98231.97
2022-11-15T06:29:13.461Z,98223.59
2022-11-15T06:31:40.325Z,98225.53
2022-11-15T06:34:06.996Z,98223.34
2022-11-15T06:36:36.315Z,98215.91
2022-11-15T06:39:06.561Z,98219.91
2022-11-15T06:41:36.558Z,98227.31
2022-11-15T06:44:04.068Z,98236.47
2022-11-15T06:46:30.959Z,98242.00
2022-11-15T06:48:57.831Z,98249.28
2022-11-15T06:51:24.709Z,98247.16
2022-11-15T06:53:51.549Z,98248.81
2022-11-15T06:56:18.260Z,98246.84
2022-11-15T06:58:45.400Z,98251.88
2022-11-15T07:01:13.689Z,98249.59
2022-11-15T07:03:42.657Z,98246.41
2022-11-15T07:06:10.842Z,98240.97
2022-11-15T07:08:38.011Z,98246.16
2022-11-15T07:11:07.504Z,98241.66
2022-11-15T07:13:35.750Z,98246.31
2022-11-15T07:16:04.941Z,98246.91
2022-11-15T07:18:31.801Z,98235.91
2022-11-15T07:21:03.055Z,98240.97
2022-11-15T07:23:30.221Z,98244.94
2022-11-15T07:26:00.660Z,98245.81
2022-11-15T07:28:27.912Z,98240.66
2022-11-15T07:30:55.369Z,98232.75
2022-11-15T07:33:22.491Z,98239.28
2022-11-15T07:35:49.612Z,98231.56
2022-11-15T07:38:17.241Z,98221.66
2022-11-15T07:40:48.830Z,98229.91
2022-11-15T07:43:15.752Z,98221.00
2022-11-15T07:45:44.647Z,98215.47
2022-11-15T07:48:11.884Z,98211.84
2022-11-15T07:50:43.315Z,98207.97
2022-11-15T07:53:11.596Z,98208.69
2022-11-15T07:55:40.677Z,98203.63
2022-11-15T07:58:09.521Z,98196.34
2022-11-15T08:00:37.110Z,98196.59
2022-11-15T08:03:05.004Z,98185.16
2022-11-15T08:05:32.462Z,98181.25
2022-11-15T08:07:59.764Z,98182.97
2022-11-15T08:10:27.401Z,98174.28
2022-11-15T08:13:01.715Z,98181.78
2022-11-15T08:15:29.373Z,98189.22
2022-11-15T08:18:00.030Z,98179.81
2022-11-15T08:20:30.757Z,98179.78
2022-11-15T08:22:58.920Z,98170.88
2022-11-15T08:25:29.476Z,98168.06
2022-11-15T08:27:59.818Z,98175.38
2022-11-15T08:30:27.409Z,98170.66
2022-11-15T08:32:55.152Z,98181.69
2022-11-15T08:35:26.224Z,98185.69
2022-11-15T08:37:56.118Z,98180.84
2022-11-15T08:40:24.302Z,98177.06
2022-11-15T08:42:51.238Z,98180.53
2022-11-15T08:45:18.087Z,98168.16
2022-11-15T08:47:48.471Z,98164.59
2022-11-15T08:50:18.223Z,98174.75
2022-11-15T08:52:45.247Z,98160.25
2022-11-15T08:55:12.116Z,98153.22
2022-11-15T08:57:38.744Z,98152.12
2022-11-15T09:00:08.199Z,98162.81
2022-11-15T09:02:35.079Z,98156.66
2022-11-15T09:05:01.965Z,98150.88
2022-11-15T09:07:31.087Z,98153.03
2022-11-15T09:09:58.066Z,98149.69
2022-11-15T09:12:25.893Z,98142.75
2022-11-15T09:14:52.759Z,98145.12
2022-11-15T09:17:24.373Z,98158.84
2022-11-15T09:19:52.700Z,98169.16
2022-11-15T09:22:19.629Z,98166.75
2022-11-15T09:24:46.708Z,98167.25
2022-11-15T09:27:14.388Z,98151.03
2022-11-15T09:29:41.275Z,98140.28
2022-11-15T09:32:08.443Z,98137.25
2022-11-15T09:34:35.278Z,98135.03
2022-11-15T09:37:01.967Z,98142.81
2022-11-15T09:39:28.889Z,98146.19
2022-11-15T09:42:27.348Z,98149.16
2022-11-15T09:44:54.246Z,98152.31
2022-11-15T09:47:36.058Z,98159.91
2022-11-15T09:50:10.648Z,98153.78
2022-11-15T09:52:38.528Z,98157.97
2022-11-15T09:55:07.047Z,98143.44
2022-11-15T09:57:55.889Z,98138.72
2022-11-15T10:00:46.652Z,98139.47
2022-11-15T10:03:22.477Z,98135.06
2022-11-15T10:05:51.146Z,98123.75
2022-11-15T10:08:37.408Z,98127.59
2022-11-15T10:11:36.047Z,98122.34
2022-11-15T10:14:03.467Z,98127.09
2022-11-15T10:16:55.427Z,98121.41
2022-11-15T10:19:29.685Z,98113.91
2022-11-15T10:22:21.627Z,98107.06
2022-11-15T10:24:49.160Z,98100.28
2022-11-15T10:27:18.374Z,98102.03
2022-11-15T10:29:49.321Z,98090.53
2022-11-15T10:32:18.678Z,98102.41
2022-11-15T10:34:46.513Z,98102.53
2022-11-15T10:37:13.416Z,98104.22
2022-11-15T10:39:42.259Z,98102.34
2022-11-15T10:42:30.113Z,98103.94
2022-11-15T10:44:56.960Z,98099.59
2022-11-15T10:47:25.061Z,98092.88
2022-11-15T10:49:58.698Z,98091.50
2022-11-15T10:52:26.449Z,98080.31
2022-11-15T10:55:01.886Z,98068.72
2022-11-15T10:57:32.328Z,98063.25
2022-11-15T11:00:22.595Z,98072.19
2022-11-15T11:03:31.801Z,98059.06
2022-11-15T11:06:06.755Z,98049.47
2022-11-15T11:08:38.808Z,98042.19
2022-11-15T11:11:06.734Z,98041.53
2022-11-15T11:13:37.816Z,98041.28
2022-11-15T11:16:21.002Z,98030.06
2022-11-15T11:22:39.640Z,98017.56
2022-11-15T11:28:43.094Z,98013.31
2022-11-15T11:31:29.041Z,98009.56
2022-11-15T11:33:58.772Z,98025.66
2022-11-15T11:36:50.806Z,98015.28
2022-11-15T11:39:39.194Z,98006.97
2022-11-15T11:42:23.097Z,98006.22
2022-11-15T11:45:17.802Z,98006.59
2022-11-15T11:47:49.871Z,98002.59
2022-11-15T11:50:25.533Z,97993.25
2022-11-15T11:53:03.458Z,97997.03
2022-11-15T11:55:39.109Z,97985.94
2022-11-15T11:58:11.257Z,97975.41
2022-11-15T12:00:53.137Z,97971.91
2022-11-15T12:03:42.214Z,97964.94
2022-11-15T12:06:23.744Z,97959.63
2022-11-15T12:08:55.125Z,97950.50
2022-11-15T12:11:25.476Z,97944.19
2022-11-15T12:13:59.667Z,97936.41
2022-11-15T12:16:31.211Z,97933.47
2022-11-15T12:19:08.916Z,97936.44
2022-11-15T12:22:01.823Z,97929.03
2022-11-15T12:24:38.865Z,97920.53
2022-11-15T12:27:26.310Z,97916.00
2022-11-15T12:30:00.285Z,97912.28
2022-11-15T12:32:34.109Z,97904.41
2022-11-15T12:35:02.136Z,97900.28
2022-11-15T12:37:44.138Z,97903.06
2022-11-15T12:40:14.042Z,97902.16
2022-11-15T12:42:43.684Z,97898.00
2022-11-15T12:45:29.523Z,97901.84
2022-11-15T12:48:17.772Z,97897.75
2022-11-15T12:50:59.616Z,97889.00
2022-11-15T12:53:26.524Z,97888.16
2022-11-15T12:56:16.121Z,97898.09
2022-11-15T12:58:49.829Z,97899.28
2022-11-15T13:01:32.055Z,97901.22
2022-11-15T13:04:21.053Z,97908.28
2022-11-15T13:06:56.966Z,97902.41
2022-11-15T13:09:44.313Z,97902.94
2022-11-15T13:12:16.070Z,97905.53
2022-11-15T13:14:49.823Z,97903.13
2022-11-15T13:17:22.791Z,97919.69
2022-11-15T13:23:05.067Z,97900.94
2022-11-15T13:25:40.085Z,97887.94
2022-11-15T13:28:16.047Z,97887.06
2022-11-15T13:30:48.997Z,97887.28
2022-11-15T13:33:19.377Z,97868.94
2022-11-15T13:35:55.577Z,97871.31
2022-11-15T13:38:25.430Z,97863.78
2022-11-15T13:40:52.627Z,97878.72
2022-11-15T13:43:22.512Z,97871.75
2022-11-15T13:46:09.239Z,97864.75
2022-11-15T13:48:36.601Z,97865.13
2022-11-15T13:51:15.721Z,97862.19
2022-11-15T13:53:47.683Z,97849.34
2022-11-15T13:56:16.778Z,97857.78
2022-11-15T13:58:43.915Z,97855.38
2022-11-15T14:01:17.653Z,97850.13
2022-11-15T14:04:01.701Z,97853.66
2022-11-15T14:06:31.072Z,97852.28
2022-11-15T14:09:16.271Z,97850.81
2022-11-15T14:11:56.849Z,97850.81
2022-11-15T14:14:26.303Z,97846.06
2022-11-15T14:16:56.219Z,97843.31
2022-11-15T14:19:23.045Z,97848.72
2022-11-15T14:22:08.581Z,97844.91
2022-11-15T14:24:35.518Z,97838.97
2022-11-15T14:27:23.875Z,97841.22
2022-11-15T14:29:51.235Z,97844.91
2022-11-15T14:32:29.631Z,97837.19
2022-11-15T14:34:58.392Z,97836.91
2022-11-15T14:37:35.696Z,97834.81
2022-11-15T14:40:03.020Z,97836.75
2022-11-15T14:42:30.002Z,97827.09
2022-11-15T14:44:56.878Z,97825.44
2022-11-15T14:47:23.768Z,97818.31
2022-11-15T14:49:50.651Z,97819.53
2022-11-15T14:52:34.530Z,97818.78
2022-11-15T14:55:03.446Z,97806.59
2022-11-15T14:57:30.927Z,97812.66
2022-11-15T14:59:58.075Z,97811.56
2022-11-15T15:02:26.487Z,97809.50
2022-11-15T15:04:53.698Z,97808.38
2022-11-15T15:07:21.352Z,97798.06
2022-11-15T15:09:48.519Z,97805.41
2022-11-15T15:12:21.874Z,97798.87
2022-11-15T15:14:50.439Z,97801.53
2022-11-15T15:17:17.804Z,97790.87
2022-11-15T15:19:44.719Z,97792.25
2022-11-15T15:22:17.794Z,97793.66
2022-11-15T15:24:45.437Z,97788.75
2022-11-15T15:27:12.704Z,97789.44
2022-11-15T15:29:40.139Z,97785.91
2022-11-15T15:32:07.249Z,97768.78
2022-11-15T15:34:34.790Z,97779.62
2022-11-15T15:37:26.079Z,97784.47
2022-11-15T15:39:53.821Z,97780.72
2022-11-15T15:42:21.333Z,97780.31
2022-11-15T15:44:49.079Z,97777.88
2022-11-15T15:47:24.902Z,97773.09
2022-11-15T15:49:52.129Z,97776.66
2022-11-15T15:52:19.116Z,97774.09
2022-11-15T15:54:46.242Z,97777.63
2022-11-15T15:57:14.780Z,97777.13
2022-11-15T15:59:41.741Z,97771.53
2022-11-15T16:02:11.986Z,97776.72
2022-11-15T16:04:39.183Z,97770.16
2022-11-15T16:07:06.102Z,97779.84
2022-11-15T16:09:51.600Z,97773.31
2022-11-15T16:12:18.477Z,97774.78
2022-11-15T16:14:45.319Z,97772.59
2022-11-15T16:17:18.871Z,97765.00
2022-11-15T16:19:45.756Z,97758.88
2022-11-15T16:22:12.622Z,97756.22
2022-11-15T16:24:39.517Z,97756.31
2022-11-15T16:27:06.484Z,97750.19
2022-11-15T16:29:33.352Z,97747.91
2022-11-15T16:32:00.269Z,97739.47
2022-11-15T16:34:30.760Z,97743.56
2022-11-15T16:36:59.188Z,97745.56
2022-11-15T16:39:26.184Z,97736.75
2022-11-15T16:41:53.057Z,97735.72
2022-11-15T16:44:20.008Z,97734.56
2022-11-15T16:46:52.021Z,97728.78
2022-11-15T16:49:22.357Z,97722.22
2022-11-15T16:51:50.643Z,97740.09
2022-11-15T16:54:17.532Z,97741.66
2022-11-15T16:56:44.406Z,97732.75
2022-11-15T16:59:16.689Z,97737.41
2022-11-15T17:01:50.732Z,97734.25
2022-11-15T17:04:19.310Z,97731.06
2022-11-15T17:06:47.975Z,97731.13
2022-11-15T17:09:25.910Z,97718.00
2022-11-15T17:11:53.066Z,97727.78
2022-11-15T17:14:19.979Z,97722.28
2022-11-15T17:16:47.088Z,97722.13
2022-11-15T17:19:15.729Z,97717.47
2022-11-15T17:21:43.478Z,97716.22
2022-11-15T17:24:10.848Z,97717.13
2022-11-15T17:26:40.774Z,97712.69
2022-11-15T17:29:08.285Z,97711.53
2022-11-15T17:31:36.450Z,97714.41
2022-11-15T17:34:04.897Z,97710.81
2022-11-15T17:36:31.988Z,97708.84
2022-11-15T17:38:59.994Z,97710.72
2022-11-15T17:41:27.937Z,97704.84
2022-11-15T17:43:58.157Z,97699.84
2022-11-15T17:46:25.081Z,97681.94
2022-11-15T17:48:52.016Z,97675.13
2022-11-15T17:51:19.515Z,97682.34
2022-11-15T17:53:48.631Z,97671.84
2022-11-15T17:56:17.502Z,97670.13
2022-11-15T17:58:52.822Z,97673.44
2022-11-15T18:01:22.161Z,97673.28
2022-11-15T18:03:49.273Z,97666.81
2022-11-15T18:06:16.865Z,97675.16
2022-11-15T18:08:45.409Z,97655.94
2022-11-15T18:11:21.075Z,97669.34
2022-11-15T18:13:52.407Z,97665.38
2022-11-15T18:16:21.855Z,97664.44
2022-11-15T18:18:49.130Z,97661.37
2022-11-15T18:21:20.305Z,97654.03
2022-11-15T18:23:47.840Z,97647.28
2022-11-15T18:26:16.433Z,97650.47
2022-11-15T18:28:46.177Z,97639.66
2022-11-15T18:31:15.579Z,97638.66
2022-11-15T18:33:43.211Z,97640.91
2022-11-15T18:36:13.140Z,97642.97
2022-11-15T18:38:40.153Z,97642.56
2022-11-15T18:41:09.334Z,97635.66
2022-11-15T18:43:36.884Z,97628.25
2022-11-15T18:46:15.397Z,97631.37
2022-11-15T18:48:43.655Z,97645.63
2022-11-15T18:51:12.643Z,97634.72
2022-11-15T18:53:40.373Z,97637.72
2022-11-15T18:56:12.395Z,97635.03
2022-11-15T18:58:42.270Z,97632.47
2022-11-15T19:01:20.192Z,97633.69
2022-11-15T19:03:49.234Z,97633.16
2022-11-15T19:06:20.777Z,97626.97
2022-11-15T19:08:50.317Z,97625.56
2022-11-15T19:11:21.864Z,97624.47
2022-11-15T19:13:48.749Z,97621.56
2022-11-15T19:16:16.352Z,97617.16
2022-11-15T19:18:43.398Z,97610.28
2022-11-15T19:21:14.831Z,97616.31
2022-11-15T19:23:43.435Z,97613.16
2022-11-15T19:26:15.572Z,97610.31
2022-11-15T19:28:43.271Z,97609.69
2022-11-15T19:31:15.021Z,97605.81
2022-11-15T19:33:43.279Z,97603.16
2022-11-15T19:36:13.336Z,97599.13
2022-11-15T19:38:40.812Z,97603.66
2022-11-15T19:41:12.992Z,97602.22
2022-11-15T19:43:40.088Z,97597.47
2022-11-15T19:46:07.946Z,97603.31
2022-11-15T19:48:35.036Z,97599.75
2022-11-15T19:51:07.120Z,97603.91
2022-11-15T19:53:35.537Z,97599.09
2022-11-15T19:56:11.646Z,97598.22
2022-11-15T19:58:39.028Z,97600.03
2022-11-15T20:01:08.661Z,97591.22
2022-11-15T20:03:36.634Z,97586.34
2022-11-15T20:06:07.728Z,97590.16
2022-11-15T20:08:35.651Z,97589.31
2022-11-15T20:11:04.507Z,97576.44
2022-11-15T20:13:31.723Z,97580.75
2022-11-15T20:15:58.885Z,97588.53
2022-11-15T20:18:27.561Z,97586.16
2022-11-15T20:20:59.303Z,97584.47
2022-11-15T20:23:27.206Z,97576.69
2022-11-15T20:25:54.543Z,97584.69
2022-11-15T20:28:24.464Z,97565.59
2022-11-15T20:30:54.195Z,97575.00
2022-11-15T20:33:21.340Z,97561.59
2022-11-15T20:35:48.626Z,97561.63
2022-11-15T20:38:16.104Z,97553.87
2022-11-15T20:40:45.535Z,97551.16
2022-11-15T20:43:17.230Z,97554.47
2022-11-15T20:45:45.752Z,97544.00
2022-11-15T20:48:16.178Z,97542.31
2022-11-15T20:50:44.507Z,97536.16
2022-11-15T20:53:13.016Z,97532.28
2022-11-15T20:55:41.572Z,97524.28
2022-11-15T20:58:09.735Z,97525.25
2022-11-15T21:00:37.164Z,97525.41
2022-11-15T21:03:07.025Z,97519.94
2022-11-15T21:05:38.800Z,97525.47
2022-11-15T21:08:05.951Z,97512.72
2022-11-15T21:10:51.545Z,97511.25
2022-11-15T21:13:18.817Z,97508.00
2022-11-15T21:15:45.744Z,97511.91
2022-11-15T21:18:12.945Z,97510.72
2022-11-15T21:20:39.831Z,97509.03
2022-11-15T21:23:06.720Z,97508.94
2022-11-15T21:25:34.194Z,97504.34
2022-11-15T21:28:01.079Z,97498.94
2022-11-15T21:30:28.193Z,97494.31
2022-11-15T21:32:55.170Z,97499.78
2022-11-15T21:35:22.767Z,97489.22
2022-11-15T21:37:56.195Z,97486.50
2022-11-15T21:40:24.132Z,97492.03
2022-11-15T21:42:51.021Z,97497.31
2022-11-15T21:45:17.906Z,97498.31
2022-11-15T21:47:46.408Z,97486.69
2022-11-15T21:50:14.009Z,97494.09
2022-11-15T21:52:41.102Z,97491.03
2022-11-15T21:55:08.972Z,97486.31
2022-11-15T21:57:35.844Z,97481.47
2022-11-15T22:00:21.148Z,97480.66
2022-11-15T22:02:48.023Z,97474.25
2022-11-15T22:05:14.913Z,97479.19
2022-11-15T22:07:41.912Z,97475.09
2022-11-15T22:10:09.199Z,97469.63
2022-11-15T22:12:36.435Z,97459.47
2022-11-15T22:15:03.540Z,97465.56
2022-11-15T22:17:50.358Z,97456.91
2022-11-15T22:20:43.132Z,97451.91
2022-11-15T22:23:04.631Z,97456.47
2022-11-15T22:25:31.782Z,97451.97
2022-11-15T22:27:58.701Z,97450.13
2022-11-15T22:30:25.760Z,97449.75
2022-11-15T22:32:52.693Z,97441.72
2022-11-15T22:35:19.612Z,97443.19
2022-11-15T22:37:46.525Z,97439.97
2022-11-15T22:40:13.459Z,97436.97
2022-11-15T22:42:40.376Z,97441.41
2022-11-15T22:45:07.891Z,97435.88
2022-11-15T22:47:34.836Z,97427.13
2022-11-15T22:50:01.845Z,97415.06
2022-11-15T22:52:28.784Z,97415.72
2022-11-15T22:54:55.714Z,97408.91
2022-11-15T22:57:22.635Z,97417.13
2022-11-15T22:59:49.591Z,97404.25
2022-11-15T23:02:16.586Z,97401.56
2022-11-15T23:04:43.558Z,97403.22
2022-11-15T23:07:10.526Z,97397.47
2022-11-15T23:09:37.567Z,97398.66
2022-11-15T23:12:23.431Z,97388.06
2022-11-15T23:14:50.368Z,97386.87
2022-11-15T23:17:17.275Z,97390.69
2022-11-15T23:19:44.218Z,97393.50
2022-11-15T23:22:29.876Z,97389.25
2022-11-15T23:24:56.834Z,97388.31
2022-11-15T23:27:23.986Z,97378.87
2022-11-15T23:30:09.228Z,97374.88
2022-11-15T23:32:54.793Z,97375.00
2022-11-15T23:35:21.855Z,97376.78
2022-11-15T23:37:48.760Z,97382.06
2022-11-15T23:40:15.682Z,97368.53
2022-11-15T23:42:42.654Z,97369.75
2022-11-15T23:45:10.088Z,97364.91
2022-11-15T23:47:37.138Z,97365.47
2022-11-15T23:50:04.305Z,97367.97
2022-11-15T23:52:31.297Z,97350.63
2022-11-15T23:54:58.294Z,97349.66
2022-11-15T23:57:25.272Z,97348.09
2022-11-15T23:59:52.203Z,97345.47
